Cody Paul — WDC8106 — position and weather

sailwx.info

Track history (hours):
 
Tides and Currents Weather Stations Pressure Air Temp Water Temp Dewpoint Dewpoint Depression Visibility Wind Speed Wind Dir Waves Ship Positions

Cody Paul

Owner: Triple S Marine, LLC, Morgan City, LA. More information available from US FCC via Universal Licensing System and Coast Guard Vessel Documentation Center.

Last reported at 2017-Nov-18 22:28 UTC. Time now 2017-Nov-20 12:12 UTC.
Position N 29°33' W 090°32'.

Length 16 m; draft 3 m.

Type: Tug. MMSI: 367081770.

Date/timePositionNaut miles runAvg speedWind from/ knotsBaromVisibWave heightAir tempDewpointWater temp
2017-Nov-18 22:28N 29°33' W 090°32'0 0.0
2017-Nov-18 21:53N 29°33' W 090°32'0 0.0
2017-Nov-18 21:27N 29°33' W 090°32'0 0.0
2017-Nov-18 16:33N 29°33' W 090°32'0 0.0
2017-Nov-18 16:14N 29°33' W 090°32'0 0.0
2017-Nov-18 15:40N 29°33' W 090°32'0 0.0
2017-Nov-18 15:29N 29°33' W 090°32'0 0.0
2017-Nov-18 14:59N 29°33' W 090°32'0 0.0
2017-Nov-18 14:18N 29°33' W 090°32'0 0.0
2017-Nov-18 13:59N 29°33' W 090°32'0 0.0
2017-Nov-18 13:14N 29°33' W 090°32'0 0.0
2017-Nov-18 13:00N 29°33' W 090°32'0 0.0
2017-Nov-18 12:28N 29°33' W 090°32'0 0.0
2017-Nov-18 11:57N 29°33' W 090°32'0 0.0
2017-Nov-18 11:03N 29°33' W 090°32'0 0.0
2017-Nov-18 10:59N 29°33' W 090°32'0 0.0
2017-Nov-18 10:07N 29°33' W 090°32'0 0.0
2017-Nov-18 10:00N 29°33' W 090°32'0 0.0
2017-Nov-18 09:14N 29°33' W 090°32'0 0.0
2017-Nov-18 08:32N 29°33' W 090°32'0 0.0
2017-Nov-18 08:28N 29°33' W 090°32'0 0.0
2017-Nov-18 08:00N 29°33' W 090°32'0 0.0
2017-Nov-18 07:25N 29°33' W 090°32'0 0.0
2017-Nov-18 06:59N 29°33' W 090°32'0 0.1
2017-Nov-18 06:27N 29°33' W 090°32'3 0.1
2017-Nov-17 00:51N 29°33' W 090°28'2 6.9
2017-Nov-17 00:30N 29°34' W 090°30'1 1.7
2017-Nov-16 23:54N 29°33' W 090°32'0 0.0
2017-Nov-16 23:25N 29°33' W 090°32'  
2017-Nov-12 20:14N 29°33' W 090°28'1 5.9
2017-Nov-12 20:00N 29°34' W 090°30'2 3.7
2017-Nov-12 19:30N 29°33' W 090°32'0 0.1
2017-Nov-12 19:00N 29°33' W 090°32'0 0.0
2017-Nov-12 18:16N 29°33' W 090°32'0 0.5
2017-Nov-12 18:01N 29°33' W 090°32'0 0.2
2017-Nov-12 17:31N 29°33' W 090°32'3 0.1
2017-Nov-11 15:13N 29°33' W 090°28'1 6.8
2017-Nov-11 15:00N 29°34' W 090°30'2 3.3
2017-Nov-11 14:29N 29°33' W 090°32'0 0.2
2017-Nov-11 13:28N 29°33' W 090°32'0 0.0
2017-Nov-11 12:54N 29°33' W 090°32'0 0.0
2017-Nov-11 11:42N 29°33' W 090°32'0 0.0
2017-Nov-11 11:22N 29°33' W 090°32'0 0.0
2017-Nov-11 10:59N 29°33' W 090°32'0 0.0
2017-Nov-11 10:17N 29°33' W 090°32'0 0.0
2017-Nov-11 09:59N 29°33' W 090°32'0 0.0
2017-Nov-11 09:27N 29°33' W 090°32'0 0.0
2017-Nov-11 08:42N 29°33' W 090°32'0 0.0
2017-Nov-11 08:27N 29°33' W 090°32'0 0.0
2017-Nov-11 07:44N 29°33' W 090°32'0 0.0
2017-Nov-11 07:30N 29°33' W 090°32'0 0.0
2017-Nov-11 06:59N 29°33' W 090°32'0 0.0
2017-Nov-11 06:13N 29°33' W 090°32'0 0.0
2017-Nov-11 05:55N 29°33' W 090°32'0 0.1
2017-Nov-11 05:30N 29°33' W 090°32'2 3.4
2017-Nov-11 05:00N 29°34' W 090°33'3 5.8
2017-Nov-11 04:30N 29°35' W 090°37'3 6.4
2017-Nov-11 04:00N 29°36' W 090°40'2 4.7
2017-Nov-11 03:31N 29°36' W 090°43'3 5.2
2017-Nov-11 03:01N 29°34' W 090°44'1 1.3
2017-Nov-11 02:31N 29°33' W 090°45'0 0.0
2017-Nov-11 02:01N 29°33' W 090°45'0 0.0
2017-Nov-11 01:30N 29°33' W 090°45'2 3.1
2017-Nov-11 01:00N 29°32' W 090°46'4 7.4
2017-Nov-11 00:29N 29°32' W 090°51'3 6.1
2017-Nov-10 23:56N 29°33' W 090°54'4 6.4
2017-Nov-10 23:19N 29°35' W 090°58'2 0.1
2017-Nov-09 06:04N 29°34' W 090°56'1 6.1
2017-Nov-09 05:54N 29°33' W 090°55'3 6.1
2017-Nov-09 05:26N 29°32' W 090°52'2 5.3
2017-Nov-09 05:00N 29°32' W 090°49'3 5.8
2017-Nov-09 04:31N 29°32' W 090°46'3 5.6
2017-Nov-09 04:00N 29°34' W 090°44'2 4.9
2017-Nov-09 03:30N 29°36' W 090°43'1 2.7
2017-Nov-09 03:00N 29°36' W 090°41'3 5.7
2017-Nov-09 02:30N 29°35' W 090°38'3 5.4
2017-Nov-09 02:00N 29°35' W 090°35'3 5.5
2017-Nov-09 01:27N 29°34' W 090°32'0 0.8
2017-Nov-09 01:00N 29°33' W 090°32'  
Track history (hours):
 
Tides and Currents Weather Stations Pressure Air Temp Water Temp Dewpoint Dewpoint Depression Visibility Wind Speed Wind Dir Waves Ship Positions

Cody Paul

Owner: Triple S Marine, LLC, Morgan City, LA. More information available from US FCC via Universal Licensing System and Coast Guard Vessel Documentation Center.

Last reported at 2017-Nov-18 22:28 UTC. Time now 2017-Nov-20 12:12 UTC.
Position N 29°33' W 090°32'.

Length 16 m; draft 3 m.

Type: Tug. MMSI: 367081770.

Date/timePositionNaut miles runAvg speedWind from/ knotsBaromVisibWave heightAir tempDewpointWater temp
2017-Nov-18 22:28N 29°33' W 090°32'0 0.0
2017-Nov-18 21:53N 29°33' W 090°32'0 0.0
2017-Nov-18 21:27N 29°33' W 090°32'0 0.0
2017-Nov-18 16:33N 29°33' W 090°32'0 0.0
2017-Nov-18 16:14N 29°33' W 090°32'0 0.0
2017-Nov-18 15:40N 29°33' W 090°32'0 0.0
2017-Nov-18 15:29N 29°33' W 090°32'0 0.0
2017-Nov-18 14:59N 29°33' W 090°32'0 0.0
2017-Nov-18 14:18N 29°33' W 090°32'0 0.0
2017-Nov-18 13:59N 29°33' W 090°32'0 0.0
2017-Nov-18 13:14N 29°33' W 090°32'0 0.0
2017-Nov-18 13:00N 29°33' W 090°32'0 0.0
2017-Nov-18 12:28N 29°33' W 090°32'0 0.0
2017-Nov-18 11:57N 29°33' W 090°32'0 0.0
2017-Nov-18 11:03N 29°33' W 090°32'0 0.0
2017-Nov-18 10:59N 29°33' W 090°32'0 0.0
2017-Nov-18 10:07N 29°33' W 090°32'0 0.0
2017-Nov-18 10:00N 29°33' W 090°32'0 0.0
2017-Nov-18 09:14N 29°33' W 090°32'0 0.0
2017-Nov-18 08:32N 29°33' W 090°32'0 0.0
2017-Nov-18 08:28N 29°33' W 090°32'0 0.0
2017-Nov-18 08:00N 29°33' W 090°32'0 0.0
2017-Nov-18 07:25N 29°33' W 090°32'0 0.0
2017-Nov-18 06:59N 29°33' W 090°32'0 0.1
2017-Nov-18 06:27N 29°33' W 090°32'3 0.1
2017-Nov-17 00:51N 29°33' W 090°28'2 6.9
2017-Nov-17 00:30N 29°34' W 090°30'1 1.7
2017-Nov-16 23:54N 29°33' W 090°32'0 0.0
2017-Nov-16 23:25N 29°33' W 090°32'  
2017-Nov-12 20:14N 29°33' W 090°28'1 5.9
2017-Nov-12 20:00N 29°34' W 090°30'2 3.7
2017-Nov-12 19:30N 29°33' W 090°32'0 0.1
2017-Nov-12 19:00N 29°33' W 090°32'0 0.0
2017-Nov-12 18:16N 29°33' W 090°32'0 0.5
2017-Nov-12 18:01N 29°33' W 090°32'0 0.2
2017-Nov-12 17:31N 29°33' W 090°32'3 0.1
2017-Nov-11 15:13N 29°33' W 090°28'1 6.8
2017-Nov-11 15:00N 29°34' W 090°30'2 3.3
2017-Nov-11 14:29N 29°33' W 090°32'0 0.2
2017-Nov-11 13:28N 29°33' W 090°32'0 0.0
2017-Nov-11 12:54N 29°33' W 090°32'0 0.0
2017-Nov-11 11:42N 29°33' W 090°32'0 0.0
2017-Nov-11 11:22N 29°33' W 090°32'0 0.0
2017-Nov-11 10:59N 29°33' W 090°32'0 0.0
2017-Nov-11 10:17N 29°33' W 090°32'0 0.0
2017-Nov-11 09:59N 29°33' W 090°32'0 0.0
2017-Nov-11 09:27N 29°33' W 090°32'0 0.0
2017-Nov-11 08:42N 29°33' W 090°32'0 0.0
2017-Nov-11 08:27N 29°33' W 090°32'0 0.0
2017-Nov-11 07:44N 29°33' W 090°32'0 0.0
2017-Nov-11 07:30N 29°33' W 090°32'0 0.0
2017-Nov-11 06:59N 29°33' W 090°32'0 0.0
2017-Nov-11 06:13N 29°33' W 090°32'0 0.0
2017-Nov-11 05:55N 29°33' W 090°32'0 0.1
2017-Nov-11 05:30N 29°33' W 090°32'2 3.4
2017-Nov-11 05:00N 29°34' W 090°33'3 5.8
2017-Nov-11 04:30N 29°35' W 090°37'3 6.4
2017-Nov-11 04:00N 29°36' W 090°40'2 4.7
2017-Nov-11 03:31N 29°36' W 090°43'3 5.2
2017-Nov-11 03:01N 29°34' W 090°44'1 1.3
2017-Nov-11 02:31N 29°33' W 090°45'0 0.0
2017-Nov-11 02:01N 29°33' W 090°45'0 0.0
2017-Nov-11 01:30N 29°33' W 090°45'2 3.1
2017-Nov-11 01:00N 29°32' W 090°46'4 7.4
2017-Nov-11 00:29N 29°32' W 090°51'3 6.1
2017-Nov-10 23:56N 29°33' W 090°54'4 6.4
2017-Nov-10 23:19N 29°35' W 090°58'2 0.1
2017-Nov-09 06:04N 29°34' W 090°56'1 6.1
2017-Nov-09 05:54N 29°33' W 090°55'3 6.1
2017-Nov-09 05:26N 29°32' W 090°52'2 5.3
2017-Nov-09 05:00N 29°32' W 090°49'3 5.8
2017-Nov-09 04:31N 29°32' W 090°46'3 5.6
2017-Nov-09 04:00N 29°34' W 090°44'2 4.9
2017-Nov-09 03:30N 29°36' W 090°43'1 2.7
2017-Nov-09 03:00N 29°36' W 090°41'3 5.7
2017-Nov-09 02:30N 29°35' W 090°38'3 5.4
2017-Nov-09 02:00N 29°35' W 090°35'3 5.5
2017-Nov-09 01:27N 29°34' W 090°32'0 0.8
2017-Nov-09 01:00N 29°33' W 090°32'  

Dump ship's entire track history